Time;durP1;ratioP1;P1;durP2;ratioP2;P2;SDS_P1;SDS_P2;PMS_P1;PMS_P2;Temp;Humidity;BMP_temperature;BMP_pressure;BME280_temperature;BME280_humidity;BME280_pressure;Samples;Min_cycle;Max_cycle;Signal;HPM_P1;HPM_P2
2021/07/31 00:00:59;;;;;;;7.63;3.08;;;16.40;99.90;;;;;;5042878;28;20120;-83
2021/07/31 00:03:28;;;;;;;4.63;2.60;;;16.40;99.90;;;;;;5031753;28;20228;-83
2021/07/31 00:05:55;;;;;;;7.65;2.75;;;16.40;99.90;;;;;;5036774;28;20409;-83
2021/07/31 00:08:28;;;;;;;5.78;2.55;;;16.40;99.90;;;;;;5024650;28;20109;-83
2021/07/31 00:10:54;;;;;;;11.90;3.22;;;16.40;99.90;;;;;;5029658;28;20038;-82
2021/07/31 00:13:21;;;;;;;6.03;2.65;;;16.40;99.90;;;;;;5026295;28;20044;-83
2021/07/31 00:15:47;;;;;;;6.63;2.50;;;16.40;99.90;;;;;;5019738;28;20048;-82
2021/07/31 00:18:14;;;;;;;8.45;3.40;;;16.40;99.90;;;;;;5034565;28;20462;-82
2021/07/31 00:20:44;;;;;;;7.72;2.92;;;16.50;99.90;;;;;;5026398;28;20044;-83
2021/07/31 00:23:11;;;;;;;7.03;2.70;;;16.50;99.90;;;;;;5037076;28;20057;-83
2021/07/31 00:25:37;;;;;;;6.97;3.20;;;16.50;99.90;;;;;;5045910;28;20041;-83
2021/07/31 00:28:04;;;;;;;9.13;2.80;;;16.60;99.90;;;;;;5022339;28;20049;-83
2021/07/31 00:30:35;;;;;;;6.80;2.78;;;16.60;99.90;;;;;;5027415;28;20048;-83
2021/07/31 00:33:01;;;;;;;6.20;3.05;;;16.60;99.90;;;;;;5034407;28;20061;-83
2021/07/31 00:35:27;;;;;;;5.95;2.90;;;16.70;99.90;;;;;;5043612;28;20771;-83
2021/07/31 00:37:53;;;;;;;6.57;2.70;;;16.70;99.90;;;;;;5042179;28;20059;-83
2021/07/31 00:40:19;;;;;;;5.72;2.53;;;16.70;99.90;;;;;;5031337;28;20044;-83
2021/07/31 00:42:46;;;;;;;7.10;2.60;;;16.70;99.90;;;;;;5031757;28;20045;-83
2021/07/31 00:45:13;;;;;;;8.38;2.97;;;16.70;99.90;;;;;;5032498;28;20037;-83
2021/07/31 00:47:40;;;;;;;7.63;2.70;;;16.70;99.90;;;;;;5032794;28;20040;-83
2021/07/31 00:50:07;;;;;;;6.45;2.85;;;16.70;99.90;;;;;;5048691;28;20079;-82
2021/07/31 00:52:35;;;;;;;6.90;2.70;;;16.70;99.90;;;;;;5049857;28;20122;-83
2021/07/31 00:55:02;;;;;;;7.47;2.83;;;16.80;99.90;;;;;;5048389;28;20037;-83
2021/07/31 00:57:29;;;;;;;7.22;2.63;;;16.70;99.90;;;;;;5042586;28;20569;-82
2021/07/31 00:59:54;;;;;;;8.35;3.30;;;16.50;99.90;;;;;;5048468;28;20033;-83
2021/07/31 01:02:21;;;;;;;8.48;2.55;;;16.40;99.90;;;;;;5031348;28;20417;-83
2021/07/31 01:04:47;;;;;;;7.75;3.15;;;16.40;99.90;;;;;;5031878;28;20048;-83
2021/07/31 01:07:13;;;;;;;9.27;3.40;;;16.40;99.90;;;;;;5049310;28;20037;-84
2021/07/31 01:09:39;;;;;;;8.13;2.97;;;16.50;99.90;;;;;;5042329;28;20042;-84
2021/07/31 01:12:06;;;;;;;7.22;2.70;;;16.50;99.90;;;;;;5040187;28;20048;-83
2021/07/31 01:14:32;;;;;;;9.38;3.00;;;16.60;99.90;;;;;;5042757;28;20104;-83
2021/07/31 01:16:58;;;;;;;6.85;2.25;;;16.60;99.90;;;;;;5033318;28;20037;-83
2021/07/31 01:19:25;;;;;;;9.50;2.90;;;16.70;99.90;;;;;;5031517;28;20036;-83
2021/07/31 01:21:51;;;;;;;8.02;3.35;;;16.70;99.90;;;;;;5044373;28;20033;-84
2021/07/31 01:24:17;;;;;;;9.77;3.22;;;16.70;99.90;;;;;;5049654;28;20048;-83
2021/07/31 01:26:48;;;;;;;10.57;3.50;;;16.70;99.90;;;;;;5028400;28;20058;-83
2021/07/31 01:29:18;;;;;;;8.57;3.10;;;16.70;99.90;;;;;;5028715;28;20120;-84
2021/07/31 01:31:45;;;;;;;7.53;3.38;;;16.60;99.90;;;;;;5044509;28;20061;-86
2021/07/31 01:34:12;;;;;;;8.45;3.45;;;16.70;99.90;;;;;;5033017;28;20077;-88
2021/07/31 01:36:39;;;;;;;9.27;3.17;;;16.60;99.90;;;;;;5040027;28;20128;-88
2021/07/31 01:39:05;;;;;;;11.32;3.92;;;16.50;99.90;;;;;;5027750;28;20100;-86
2021/07/31 01:41:32;;;;;;;10.05;3.53;;;16.50;99.90;;;;;;5038264;28;20034;-85
2021/07/31 01:43:58;;;;;;;9.23;3.25;;;16.40;99.90;;;;;;5019022;28;20037;-84
2021/07/31 01:46:24;;;;;;;9.13;3.53;;;16.30;99.90;;;;;;5031175;28;20736;-84
2021/07/31 01:48:51;;;;;;;5.78;3.42;;;16.30;99.90;;;;;;5028082;28;20038;-87
2021/07/31 01:51:18;;;;;;;9.07;3.95;;;16.20;99.90;;;;;;5024273;28;20042;-88
2021/07/31 01:53:44;;;;;;;8.32;4.18;;;16.20;99.90;;;;;;5022615;28;20045;-86
2021/07/31 01:56:10;;;;;;;9.23;3.70;;;16.20;99.90;;;;;;5029186;28;20041;-87
2021/07/31 01:58:37;;;;;;;7.75;3.45;;;16.10;99.90;;;;;;5044014;28;20037;-86
2021/07/31 02:01:03;;;;;;;12.73;4.47;;;16.10;99.90;;;;;;5040603;28;20049;-87
2021/07/31 02:03:29;;;;;;;9.43;4.68;;;16.10;99.90;;;;;;5043507;28;20037;-85
2021/07/31 02:05:56;;;;;;;7.93;4.18;;;15.90;99.90;;;;;;5019584;28;20539;-85
2021/07/31 02:08:22;;;;;;;9.43;4.65;;;15.70;99.90;;;;;;5037127;28;20095;-85
2021/07/31 02:10:49;;;;;;;8.35;4.10;;;15.60;99.90;;;;;;5012192;28;20038;-86
2021/07/31 02:13:15;;;;;;;13.20;5.93;;;15.50;99.90;;;;;;5048076;28;20397;-84
2021/07/31 02:15:45;;;;;;;12.65;5.68;;;15.40;99.90;;;;;;5049165;28;20033;-84
2021/07/31 02:18:12;;;;;;;10.88;5.93;;;15.30;99.90;;;;;;5048892;28;20029;-85
2021/07/31 02:20:38;;;;;;;15.75;6.82;;;15.30;99.90;;;;;;5049022;28;20029;-86
2021/07/31 02:23:06;;;;;;;12.45;5.90;;;15.30;99.90;;;;;;5048720;28;20386;-87
2021/07/31 02:25:32;;;;;;;11.32;6.45;;;15.30;99.90;;;;;;5048946;28;20424;-86
2021/07/31 02:28:04;;;;;;;15.07;6.15;;;15.30;99.90;;;;;;5048731;28;20512;-84
2021/07/31 02:30:30;;;;;;;13.38;6.40;;;15.30;99.90;;;;;;5048211;28;20032;-85
2021/07/31 02:32:55;;;;;;;13.55;5.95;;;15.30;99.90;;;;;;5031675;28;20038;-85
2021/07/31 02:35:21;;;;;;;12.27;6.75;;;15.30;99.90;;;;;;5048206;28;20032;-85
2021/07/31 02:37:47;;;;;;;9.07;5.57;;;15.40;99.90;;;;;;5048323;28;20064;-85
2021/07/31 02:40:13;;;;;;;13.10;6.28;;;15.30;99.90;;;;;;5031362;28;20500;-85
2021/07/31 02:42:39;;;;;;;8.20;5.25;;;15.40;99.90;;;;;;5047679;28;20045;-85
2021/07/31 02:45:08;;;;;;;13.07;6.07;;;15.40;99.90;;;;;;5048610;28;20034;-84
2021/07/31 02:47:33;;;;;;;12.48;6.65;;;15.40;99.90;;;;;;5032582;28;20431;-85
2021/07/31 02:50:02;;;;;;;12.35;5.65;;;15.40;99.90;;;;;;5033511;28;20120;-85
2021/07/31 02:52:28;;;;;;;10.75;5.35;;;15.40;99.90;;;;;;5049014;28;20480;-84
2021/07/31 02:54:54;;;;;;;8.38;5.70;;;15.40;99.90;;;;;;5048458;28;20061;-86
2021/07/31 02:57:19;;;;;;;13.07;6.22;;;15.50;99.90;;;;;;5048628;28;20034;-85
2021/07/31 02:59:45;;;;;;;10.63;5.95;;;15.50;99.90;;;;;;5033250;28;20033;-85
2021/07/31 03:02:13;;;;;;;8.77;5.20;;;15.60;99.90;;;;;;5048541;28;20077;-84
2021/07/31 03:04:39;;;;;;;11.07;5.63;;;15.60;99.90;;;;;;5049371;28;20381;-84
2021/07/31 03:07:06;;;;;;;13.43;6.43;;;15.70;99.90;;;;;;5052669;28;20025;-85
2021/07/31 03:09:31;;;;;;;12.73;6.03;;;15.60;99.90;;;;;;5036925;28;20033;-86
2021/07/31 03:11:57;;;;;;;11.18;6.43;;;15.50;99.90;;;;;;5052474;28;20400;-83
2021/07/31 03:14:23;;;;;;;16.20;6.88;;;15.50;99.90;;;;;;5052688;28;20473;-84
2021/07/31 03:16:49;;;;;;;13.50;7.32;;;15.40;99.90;;;;;;5037131;28;20041;-84
2021/07/31 03:19:16;;;;;;;11.65;6.80;;;15.40;99.90;;;;;;5052348;28;20477;-86
2021/07/31 03:21:42;;;;;;;11.32;6.68;;;15.30;99.90;;;;;;5052345;28;20477;-87
2021/07/31 03:24:07;;;;;;;10.98;6.80;;;15.20;99.90;;;;;;5035727;28;20061;-85
2021/07/31 03:26:33;;;;;;;10.23;6.60;;;15.20;99.90;;;;;;5052189;28;20088;-86
2021/07/31 03:28:59;;;;;;;10.20;6.60;;;15.10;99.90;;;;;;5035458;28;20033;-86
2021/07/31 03:31:25;;;;;;;11.85;7.85;;;15.10;99.90;;;;;;5036930;28;20022;-87
2021/07/31 03:33:51;;;;;;;11.43;6.97;;;15.00;99.90;;;;;;5052065;28;20072;-88
2021/07/31 03:36:17;;;;;;;19.02;9.68;;;15.00;99.90;;;;;;5052257;28;20033;-88
2021/07/31 03:38:47;;;;;;;12.48;8.35;;;15.00;99.90;;;;;;5036452;28;20041;-88
2021/07/31 03:41:13;;;;;;;15.50;9.57;;;14.90;99.90;;;;;;5036070;28;20124;-89
2021/07/31 03:43:39;;;;;;;18.25;9.60;;;14.90;99.90;;;;;;5052174;28;20116;-89
2021/07/31 03:46:06;;;;;;;14.48;9.35;;;14.90;99.90;;;;;;5052182;28;20025;-88
2021/07/31 03:48:32;;;;;;;14.88;9.32;;;14.90;99.90;;;;;;5035770;28;20029;-88
2021/07/31 03:50:58;;;;;;;14.88;9.88;;;14.80;99.90;;;;;;5036489;28;20041;-88
2021/07/31 03:53:27;;;;;;;17.13;11.50;;;14.90;99.90;;;;;;5051845;28;20109;-88
2021/07/31 03:55:55;;;;;;;13.55;11.18;;;14.90;99.90;;;;;;5051557;28;20091;-87
2021/07/31 03:58:21;;;;;;;17.85;12.75;;;14.90;99.90;;;;;;5051755;28;20033;-88
2021/07/31 04:00:47;;;;;;;18.50;13.23;;;14.80;99.90;;;;;;5051756;28;20153;-87
2021/07/31 04:03:13;;;;;;;15.27;12.80;;;14.80;99.90;;;;;;5051714;28;20037;-87
2021/07/31 04:05:40;;;;;;;17.92;13.43;;;14.90;99.90;;;;;;5034720;28;20072;-86
2021/07/31 04:08:06;;;;;;;17.17;12.20;;;14.80;99.90;;;;;;5034588;28;20038;-86
2021/07/31 04:10:36;;;;;;;13.60;11.38;;;14.80;99.90;;;;;;5051454;28;20062;-86
2021/07/31 04:13:02;;;;;;;19.08;12.32;;;14.90;99.90;;;;;;5051097;28;20503;-87
2021/07/31 04:15:27;;;;;;;16.42;12.38;;;14.90;99.90;;;;;;5034551;28;20042;-88
2021/07/31 04:17:53;;;;;;;17.67;13.32;;;14.90;99.90;;;;;;5050864;28;20033;-87
2021/07/31 04:20:19;;;;;;;18.50;13.88;;;14.90;99.90;;;;;;5034692;28;20405;-87
2021/07/31 04:22:45;;;;;;;16.80;12.88;;;14.90;99.90;;;;;;5050739;28;20099;-88
2021/07/31 04:25:11;;;;;;;14.43;12.90;;;14.90;99.90;;;;;;5051034;28;20026;-86
2021/07/31 04:27:36;;;;;;;16.15;13.02;;;14.90;99.90;;;;;;5051110;28;20056;-87
2021/07/31 04:30:03;;;;;;;17.30;13.02;;;14.90;99.90;;;;;;5051089;28;20120;-87
2021/07/31 04:32:28;;;;;;;16.73;11.32;;;14.90;99.90;;;;;;5051214;28;20030;-86
2021/07/31 04:34:55;;;;;;;16.35;12.02;;;14.90;99.90;;;;;;5036022;28;20487;-85
2021/07/31 04:37:21;;;;;;;13.52;11.52;;;14.90;99.90;;;;;;5050947;28;20034;-86
2021/07/31 04:39:46;;;;;;;16.80;11.10;;;14.90;99.90;;;;;;5050870;28;20432;-86
2021/07/31 04:42:12;;;;;;;14.43;11.05;;;14.90;99.90;;;;;;5050460;28;20045;-86
2021/07/31 04:44:38;;;;;;;12.07;10.68;;;15.00;99.90;;;;;;5050936;28;20029;-85
2021/07/31 04:47:08;;;;;;;12.82;9.90;;;15.00;99.90;;;;;;5050873;28;20033;-85
2021/07/31 04:49:35;;;;;;;12.00;9.60;;;15.00;99.90;;;;;;5035729;28;20068;-86
2021/07/31 04:52:02;;;;;;;12.68;9.27;;;15.00;99.90;;;;;;5050812;28;20061;-86
2021/07/31 04:54:30;;;;;;;9.68;8.60;;;15.00;99.90;;;;;;5050165;28;20057;-85
2021/07/31 04:56:57;;;;;;;12.27;9.02;;;15.00;99.90;;;;;;5035389;28;20034;-87
2021/07/31 04:59:23;;;;;;;10.68;8.27;;;15.00;99.90;;;;;;5050673;28;20487;-86
2021/07/31 05:01:48;;;;;;;13.65;9.23;;;15.00;99.90;;;;;;5050585;28;20033;-87
2021/07/31 05:04:14;;;;;;;11.52;8.25;;;15.00;99.90;;;;;;5050517;28;20053;-86
2021/07/31 05:06:41;;;;;;;14.57;8.68;;;15.00;99.90;;;;;;5033680;28;20061;-87
2021/07/31 05:09:06;;;;;;;12.07;8.30;;;15.00;99.90;;;;;;5033217;28;20106;-87
2021/07/31 05:11:34;;;;;;;11.90;8.07;;;15.00;99.90;;;;;;5050197;28;20560;-87
2021/07/31 05:14:02;;;;;;;10.68;8.48;;;15.00;99.90;;;;;;5050361;28;20026;-87
2021/07/31 05:16:28;;;;;;;13.48;8.55;;;15.10;99.90;;;;;;5050279;28;20072;-86
2021/07/31 05:18:56;;;;;;;12.27;7.50;;;15.10;99.90;;;;;;5050018;28;20481;-88
2021/07/31 05:21:22;;;;;;;11.20;8.13;;;15.10;99.90;;;;;;5033577;28;20118;-87
2021/07/31 05:23:47;;;;;;;9.30;6.15;;;15.10;99.90;;;;;;5050100;28;20041;-87
2021/07/31 05:26:13;;;;;;;8.82;6.35;;;15.10;99.90;;;;;;5049670;28;20514;-86
2021/07/31 05:28:39;;;;;;;10.43;6.28;;;15.20;99.90;;;;;;5032327;28;20037;-86
2021/07/31 05:31:06;;;;;;;9.18;6.68;;;15.30;99.90;;;;;;5033233;28;20069;-85
2021/07/31 05:33:31;;;;;;;8.35;5.80;;;15.30;99.90;;;;;;5033536;28;20507;-86
2021/07/31 05:36:06;;;;;;;8.90;6.47;;;15.20;99.90;;;;;;5034062;28;20041;-86
2021/07/31 05:38:32;;;;;;;9.05;5.85;;;15.20;99.90;;;;;;5033547;28;20095;-87
2021/07/31 05:41:01;;;;;;;9.60;6.63;;;15.20;99.90;;;;;;5033213;28;20073;-86
2021/07/31 05:43:26;;;;;;;12.93;8.07;;;15.10;99.90;;;;;;5032891;28;20077;-86
2021/07/31 05:45:53;;;;;;;9.65;8.48;;;15.10;99.90;;;;;;5049767;28;20046;-86
2021/07/31 05:48:19;;;;;;;11.27;7.90;;;15.20;99.90;;;;;;5049670;28;20037;-86
2021/07/31 05:50:45;;;;;;;12.77;8.93;;;15.20;99.90;;;;;;5049195;28;20501;-87
2021/07/31 05:53:13;;;;;;;10.82;8.25;;;15.20;99.90;;;;;;5049536;28;20038;-87
2021/07/31 05:55:39;;;;;;;10.65;8.55;;;15.30;99.90;;;;;;5032612;28;20037;-86
2021/07/31 05:58:07;;;;;;;11.55;8.60;;;15.30;99.90;;;;;;5049576;28;20038;-87
2021/07/31 06:00:34;;;;;;;13.73;9.80;;;15.20;99.90;;;;;;5049258;28;20488;-88
2021/07/31 06:03:00;;;;;;;13.10;9.10;;;15.20;99.90;;;;;;5033969;28;20042;-87
2021/07/31 06:05:27;;;;;;;12.32;9.30;;;15.20;99.90;;;;;;5049574;28;20396;-89
2021/07/31 06:07:56;;;;;;;14.00;10.35;;;15.20;99.90;;;;;;5049338;28;20033;-86
2021/07/31 06:10:22;;;;;;;11.48;9.30;;;15.20;99.90;;;;;;5048816;28;20033;-86
2021/07/31 06:12:47;;;;;;;14.02;9.88;;;15.30;99.90;;;;;;5049216;28;20572;-86
2021/07/31 06:15:13;;;;;;;11.45;9.10;;;15.30;99.90;;;;;;5049219;28;20120;-85
2021/07/31 06:17:39;;;;;;;11.90;8.63;;;15.40;99.90;;;;;;5032648;28;20129;-87
2021/07/31 06:20:07;;;;;;;12.73;9.02;;;15.40;99.90;;;;;;5049187;28;20069;-86
2021/07/31 06:22:33;;;;;;;11.05;7.90;;;15.50;99.90;;;;;;5032707;28;20042;-87
2021/07/31 06:24:59;;;;;;;11.52;8.43;;;15.50;99.90;;;;;;5032805;28;20591;-86
2021/07/31 06:27:25;;;;;;;10.32;7.65;;;15.60;99.90;;;;;;5048922;28;20122;-86
2021/07/31 06:29:52;;;;;;;12.65;7.70;;;15.60;99.90;;;;;;5033171;28;20033;-86
2021/07/31 06:32:19;;;;;;;10.43;7.60;;;15.70;99.90;;;;;;5048993;28;20041;-87
2021/07/31 06:34:45;;;;;;;11.30;7.57;;;15.70;99.90;;;;;;5033133;28;20064;-85
2021/07/31 06:37:12;;;;;;;13.43;8.35;;;15.70;99.90;;;;;;5033360;28;20034;-86
2021/07/31 06:39:38;;;;;;;14.93;8.05;;;15.70;99.90;;;;;;5031454;28;20049;-86
2021/07/31 06:42:06;;;;;;;13.10;8.45;;;15.70;99.90;;;;;;5031782;28;20080;-86
2021/07/31 06:44:32;;;;;;;9.25;7.50;;;15.70;99.90;;;;;;5048820;28;20033;-86
2021/07/31 06:46:57;;;;;;;10.52;7.50;;;15.80;99.90;;;;;;5048783;28;20388;-86
2021/07/31 06:49:26;;;;;;;8.93;7.75;;;15.80;99.90;;;;;;5048844;28;20033;-85
2021/07/31 06:51:52;;;;;;;9.95;7.30;;;15.80;99.90;;;;;;5048937;28;20388;-86
2021/07/31 06:54:18;;;;;;;10.00;7.70;;;15.80;99.90;;;;;;5032209;28;20045;-86
2021/07/31 06:56:44;;;;;;;11.82;7.93;;;15.90;99.90;;;;;;5048574;28;20034;-86
2021/07/31 06:59:10;;;;;;;9.63;6.65;;;15.90;99.90;;;;;;5048685;28;20038;-86
2021/07/31 07:01:36;;;;;;;11.55;8.50;;;16.00;99.90;;;;;;5032251;28;20435;-85
2021/07/31 07:04:02;;;;;;;10.48;6.43;;;16.00;99.90;;;;;;5033269;28;20034;-86
2021/07/31 07:06:29;;;;;;;8.68;6.43;;;15.90;99.90;;;;;;5015443;28;20393;-86
2021/07/31 07:08:54;;;;;;;11.73;6.50;;;16.00;99.90;;;;;;5047347;28;20045;-86
2021/07/31 07:11:20;;;;;;;10.20;6.78;;;15.90;99.90;;;;;;5048455;28;20025;-86
2021/07/31 07:13:46;;;;;;;9.90;6.65;;;15.90;99.90;;;;;;5032101;28;20045;-86
2021/07/31 07:16:12;;;;;;;11.27;7.35;;;15.90;99.90;;;;;;5048596;28;20034;-85
2021/07/31 07:18:39;;;;;;;14.35;8.95;;;15.80;99.90;;;;;;5045690;28;20508;-85
2021/07/31 07:21:08;;;;;;;12.95;8.20;;;15.70;99.90;;;;;;5030302;28;20029;-85
2021/07/31 07:23:36;;;;;;;11.98;8.63;;;15.60;99.90;;;;;;5045698;28;20053;-86
2021/07/31 07:26:02;;;;;;;12.57;8.02;;;15.50;99.90;;;;;;5031738;28;20056;-86
2021/07/31 07:28:28;;;;;;;9.45;7.07;;;15.50;99.90;;;;;;5049087;28;20059;-87
2021/07/31 07:30:54;;;;;;;10.73;8.05;;;15.40;99.90;;;;;;5032149;28;20061;-87
2021/07/31 07:33:19;;;;;;;11.25;7.95;;;15.40;99.90;;;;;;5049051;28;20465;-86
2021/07/31 07:35:45;;;;;;;11.77;8.63;;;15.50;99.90;;;;;;5048846;28;20055;-86
2021/07/31 07:38:11;;;;;;;12.35;7.78;;;15.50;99.90;;;;;;5048905;28;20056;-86
2021/07/31 07:40:37;;;;;;;10.90;8.95;;;15.50;99.90;;;;;;5048701;28;20033;-88
2021/07/31 07:43:04;;;;;;;11.25;8.95;;;15.50;99.90;;;;;;5048211;28;20056;-88
2021/07/31 07:45:30;;;;;;;11.35;8.48;;;15.50;99.90;;;;;;5049003;28;20531;-88
2021/07/31 07:47:56;;;;;;;11.15;8.80;;;15.50;99.90;;;;;;5049910;28;20037;-87
2021/07/31 07:50:23;;;;;;;12.35;10.00;;;15.60;99.90;;;;;;5047449;28;20469;-87
2021/07/31 07:52:51;;;;;;;13.50;11.07;;;15.60;99.90;;;;;;5035641;28;20094;-88
2021/07/31 07:55:17;;;;;;;13.10;10.60;;;15.70;99.90;;;;;;5036572;28;20063;-87
2021/07/31 07:57:43;;;;;;;12.82;9.95;;;15.70;99.90;;;;;;5036732;28;20029;-88
2021/07/31 08:00:11;;;;;;;15.00;11.68;;;15.80;99.90;;;;;;5054028;28;20155;-87
2021/07/31 08:02:37;;;;;;;13.63;12.32;;;16.00;99.90;;;;;;5036288;28;20123;-87
2021/07/31 08:05:04;;;;;;;13.35;11.57;;;16.00;99.90;;;;;;5036364;28;20037;-88
2021/07/31 08:07:31;;;;;;;13.15;11.68;;;16.10;99.90;;;;;;5036245;28;20041;-88
2021/07/31 08:10:01;;;;;;;15.07;13.48;;;16.00;99.90;;;;;;5036029;28;20043;-87
2021/07/31 08:12:26;;;;;;;16.73;13.27;;;15.90;99.90;;;;;;5035389;28;20128;-88
2021/07/31 08:14:53;;;;;;;14.07;12.65;;;15.70;99.90;;;;;;5052620;28;20033;-87
2021/07/31 08:17:22;;;;;;;16.88;13.13;;;15.60;99.90;;;;;;5036029;28;20554;-87
2021/07/31 08:19:47;;;;;;;18.67;15.40;;;15.60;99.90;;;;;;5052181;28;20128;-87
2021/07/31 08:22:14;;;;;;;17.77;15.98;;;15.60;99.90;;;;;;5052164;28;20128;-86
2021/07/31 08:24:43;;;;;;;21.27;17.65;;;15.70;99.90;;;;;;5051828;28;20037;-88
2021/07/31 08:27:13;;;;;;;17.60;15.90;;;15.90;99.90;;;;;;5053597;28;20420;-86
2021/07/31 08:29:39;;;;;;;16.98;15.18;;;16.20;99.90;;;;;;5052342;28;20064;-86
2021/07/31 08:32:12;;;;;;;19.40;16.38;;;16.40;99.90;;;;;;5052864;28;20496;-86
2021/07/31 08:34:38;;;;;;;18.70;15.20;;;16.60;99.90;;;;;;5033295;28;20033;-86
2021/07/31 08:37:04;;;;;;;15.90;14.30;;;16.70;99.90;;;;;;5052965;28;20036;-86
2021/07/31 08:39:33;;;;;;;20.75;14.13;;;16.80;99.90;;;;;;5034554;28;20025;-85
2021/07/31 08:41:58;;;;;;;16.33;12.98;;;16.80;99.90;;;;;;5034569;28;20400;-85
2021/07/31 08:44:25;;;;;;;15.43;13.25;;;16.80;99.90;;;;;;5034714;28;20064;-87
2021/07/31 08:46:54;;;;;;;17.35;13.45;;;16.80;99.90;;;;;;5015352;28;20045;-86
2021/07/31 08:49:22;;;;;;;14.63;11.30;;;16.70;99.90;;;;;;5034655;28;20035;-86
2021/07/31 08:51:49;;;;;;;13.18;10.63;;;16.60;99.90;;;;;;5018659;28;20037;-85
2021/07/31 08:54:16;;;;;;;13.05;11.52;;;16.70;99.90;;;;;;5018032;28;20484;-86
2021/07/31 08:56:43;;;;;;;12.18;10.65;;;16.70;99.90;;;;;;5034002;28;20518;-86
2021/07/31 08:59:13;;;;;;;14.32;11.13;;;16.80;99.90;;;;;;5017946;28;20112;-85
2021/07/31 09:01:39;;;;;;;12.10;9.82;;;16.80;99.90;;;;;;5034246;28;20037;-86
2021/07/31 09:04:13;;;;;;;11.65;9.40;;;16.70;99.90;;;;;;5033857;28;20085;-85
2021/07/31 09:06:45;;;;;;;8.63;7.68;;;16.60;99.90;;;;;;5066010;28;20033;-85
2021/07/31 09:09:14;;;;;;;13.10;8.68;;;16.50;99.90;;;;;;5051991;28;20473;-85
2021/07/31 09:12:01;;;;;;;10.18;7.65;;;16.40;99.90;;;;;;5034134;28;20077;-85
2021/07/31 09:14:29;;;;;;;10.95;8.00;;;16.20;99.90;;;;;;5041833;28;20048;-86
2021/07/31 09:16:57;;;;;;;11.57;8.13;;;16.10;99.90;;;;;;5034232;28;20020;-86
2021/07/31 09:19:28;;;;;;;9.45;8.27;;;16.00;99.90;;;;;;5050717;28;20025;-87
2021/07/31 09:22:06;;;;;;;11.00;8.88;;;16.10;99.90;;;;;;5049974;28;20021;-87
2021/07/31 09:24:34;;;;;;;11.88;9.40;;;16.00;99.90;;;;;;5015629;28;20064;-85
2021/07/31 09:27:00;;;;;;;10.73;8.45;;;16.00;99.90;;;;;;5047844;28;20075;-86
2021/07/31 09:29:37;;;;;;;11.70;9.23;;;15.90;99.90;;;;;;5047765;28;20041;-86
2021/07/31 09:32:05;;;;;;;9.63;7.68;;;15.90;99.90;;;;;;5047780;28;20034;-85
2021/07/31 09:34:51;;;;;;;8.93;7.70;;;16.00;99.90;;;;;;5032084;28;20034;-87
2021/07/31 09:37:45;;;;;;;12.80;9.55;;;15.90;99.90;;;;;;5047795;28;20172;-86
2021/07/31 09:40:14;;;;;;;12.38;8.60;;;15.90;99.90;;;;;;5045518;28;20092;-87
2021/07/31 09:42:44;;;;;;;9.18;8.20;;;15.80;99.90;;;;;;5046014;28;20501;-86
2021/07/31 09:45:10;;;;;;;10.23;9.10;;;15.90;99.90;;;;;;5030629;28;20052;-86
2021/07/31 09:47:39;;;;;;;11.40;9.30;;;15.90;99.90;;;;;;5046851;28;20037;-86
2021/07/31 09:50:06;;;;;;;11.55;9.13;;;15.90;99.90;;;;;;5047453;28;20037;-87
2021/07/31 09:52:35;;;;;;;10.95;8.57;;;16.00;99.90;;;;;;5045920;28;20038;-89
2021/07/31 09:55:01;;;;;;;11.73;7.60;;;16.10;99.90;;;;;;5046157;28;20122;-86
2021/07/31 09:57:29;;;;;;;9.18;7.97;;;16.20;99.90;;;;;;5029280;28;20504;-86
2021/07/31 09:59:58;;;;;;;10.30;9.15;;;16.30;99.90;;;;;;5046145;28;20537;-87
2021/07/31 10:02:24;;;;;;;10.45;8.93;;;16.40;99.90;;;;;;5047243;28;20038;-86
2021/07/31 10:04:52;;;;;;;11.63;9.00;;;16.40;99.90;;;;;;5047225;28;20037;-87
2021/07/31 10:07:19;;;;;;;13.18;10.05;;;16.30;99.90;;;;;;5048762;28;20037;-87
2021/07/31 10:09:52;;;;;;;10.77;9.68;;;16.40;99.90;;;;;;5030450;28;20029;-86
2021/07/31 10:12:24;;;;;;;12.13;10.90;;;16.50;99.90;;;;;;5030090;28;20034;-87
2021/07/31 10:14:52;;;;;;;10.68;9.35;;;16.70;99.90;;;;;;5031127;28;20022;-87
2021/07/31 10:17:29;;;;;;;11.27;9.65;;;16.90;99.90;;;;;;5030493;28;20412;-86
2021/07/31 10:19:57;;;;;;;11.82;10.48;;;17.00;99.90;;;;;;5046099;28;20478;-86
2021/07/31 10:22:43;;;;;;;10.68;9.45;;;16.90;99.90;;;;;;5046714;28;20041;-86
2021/07/31 10:25:15;;;;;;;10.77;9.68;;;16.90;99.90;;;;;;5045372;28;20075;-86
2021/07/31 10:27:42;;;;;;;11.35;9.48;;;16.90;99.90;;;;;;5037315;28;20106;-85
2021/07/31 10:30:29;;;;;;;12.00;9.30;;;16.80;99.90;;;;;;5032966;28;20036;-86
2021/07/31 10:32:56;;;;;;;11.10;9.68;;;16.70;99.90;;;;;;5029241;28;20034;-86
2021/07/31 10:35:24;;;;;;;10.98;9.40;;;16.60;99.90;;;;;;5030663;28;20225;-86
2021/07/31 10:37:51;;;;;;;11.77;9.68;;;16.60;99.90;;;;;;5032175;28;20057;-88
2021/07/31 10:40:26;;;;;;;11.30;9.55;;;16.60;99.90;;;;;;5014024;28;20128;-84
2021/07/31 10:42:55;;;;;;;11.30;10.10;;;16.50;99.90;;;;;;5031050;28;20049;-87
2021/07/31 10:45:31;;;;;;;12.80;10.10;;;16.50;99.90;;;;;;5012201;28;20375;-88
2021/07/31 10:48:01;;;;;;;11.52;9.38;;;16.40;99.90;;;;;;5011320;28;20037;-86
2021/07/31 10:50:32;;;;;;;9.95;8.95;;;16.40;99.90;;;;;;5029498;28;20061;-87
2021/07/31 10:53:12;;;;;;;11.48;9.35;;;16.30;99.90;;;;;;5011541;28;20050;-86
2021/07/31 10:55:44;;;;;;;12.75;10.02;;;16.40;99.90;;;;;;5028134;28;20034;-87
2021/07/31 10:58:20;;;;;;;12.50;9.57;;;16.60;99.90;;;;;;5011912;28;20033;-87
2021/07/31 11:01:14;;;;;;;11.88;8.77;;;16.70;99.90;;;;;;5029604;28;20363;-86
2021/07/31 11:03:41;;;;;;;9.80;6.97;;;16.70;99.90;;;;;;5029809;28;20042;-88
2021/07/31 11:06:12;;;;;;;7.05;5.20;;;16.60;99.90;;;;;;5029866;28;20536;-87
2021/07/31 11:08:51;;;;;;;6.72;4.72;;;16.50;99.90;;;;;;5013296;28;20044;-87
2021/07/31 11:11:25;;;;;;;7.75;4.47;;;16.40;99.90;;;;;;5013181;28;20525;-87
2021/07/31 11:14:00;;;;;;;5.22;3.70;;;16.30;99.90;;;;;;5029963;28;20033;-87
2021/07/31 11:16:27;;;;;;;5.25;2.90;;;16.30;99.90;;;;;;5029936;28;20389;-86
2021/07/31 11:18:57;;;;;;;5.85;3.17;;;16.40;99.90;;;;;;5030457;28;20462;-86
2021/07/31 11:21:43;;;;;;;4.25;2.75;;;16.40;99.90;;;;;;5013736;28;20033;-86
2021/07/31 11:24:16;;;;;;;5.20;2.80;;;16.40;99.90;;;;;;5030781;28;20033;-87
2021/07/31 11:26:55;;;;;;;5.57;3.53;;;16.30;99.90;;;;;;5037148;28;20140;-88
2021/07/31 11:29:28;;;;;;;6.78;3.65;;;16.30;99.90;;;;;;5036669;28;20048;-86
2021/07/31 11:32:21;;;;;;;6.10;4.07;;;16.20;99.90;;;;;;5041707;28;20037;-87
2021/07/31 11:34:47;;;;;;;4.93;4.20;;;16.10;99.90;;;;;;5031551;28;20377;-88
2021/07/31 11:37:16;;;;;;;5.95;4.65;;;16.00;99.90;;;;;;5016383;28;20107;-87
2021/07/31 11:39:45;;;;;;;7.70;5.40;;;16.10;99.90;;;;;;5033390;28;20121;-87
2021/07/31 11:42:22;;;;;;;8.68;5.20;;;16.20;99.90;;;;;;5016924;28;20053;-87
2021/07/31 11:44:47;;;;;;;;;;;16.50;99.90;;;;;;5034551;28;20033;-87
2021/07/31 11:47:13;;;;;;;7.72;5.63;;;16.70;99.90;;;;;;5020313;28;19913;-87
2021/07/31 11:49:40;;;;;;;9.48;6.28;;;16.90;99.90;;;;;;5052336;28;20033;-87
2021/07/31 11:52:10;;;;;;;9.13;6.70;;;17.00;99.90;;;;;;5053008;28;20029;-87
2021/07/31 11:54:47;;;;;;;8.07;5.80;;;17.00;99.90;;;;;;5052624;28;20039;-87
2021/07/31 11:57:14;;;;;;;9.18;6.22;;;17.10;99.90;;;;;;5054439;28;20027;-87
2021/07/31 11:59:42;;;;;;;9.27;6.55;;;17.20;99.90;;;;;;5037570;28;20041;-88
2021/07/31 12:02:08;;;;;;;9.38;7.80;;;17.50;99.90;;;;;;5031015;28;20351;-86
2021/07/31 12:04:51;;;;;;;10.57;8.27;;;17.70;99.90;;;;;;5031736;28;20474;-87
2021/07/31 12:07:25;;;;;;;14.60;9.13;;;18.20;99.90;;;;;;5032128;28;20029;-86
2021/07/31 12:10:03;;;;;;;10.35;8.63;;;19.00;99.90;;;;;;5031733;28;20022;-87
2021/07/31 12:12:36;;;;;;;11.10;8.23;;;20.00;99.90;;;;;;5031646;28;20119;-87
2021/07/31 12:15:08;;;;;;;;;;;20.40;99.90;;;;;;5032800;28;20033;-88
2021/07/31 12:17:39;;;;;;;9.40;6.15;;;20.20;99.90;;;;;;5016174;28;19912;-86
2021/07/31 12:20:06;;;;;;;8.77;6.45;;;20.00;99.90;;;;;;5000604;28;20556;-87
2021/07/31 12:22:34;;;;;;;10.88;6.55;;;19.50;99.90;;;;;;4999167;28;20049;-86
2021/07/31 12:25:19;;;;;;;8.95;7.03;;;19.30;99.90;;;;;;5032698;28;20088;-86
2021/07/31 12:28:13;;;;;;;9.93;7.88;;;19.50;99.90;;;;;;5043842;28;20111;-86
2021/07/31 12:30:45;;;;;;;10.10;7.78;;;20.30;99.90;;;;;;5030438;28;20037;-86
2021/07/31 12:33:17;;;;;;;8.52;7.00;;;20.80;99.90;;;;;;5049015;28;20092;-86
2021/07/31 12:36:00;;;;;;;9.80;6.57;;;20.70;99.90;;;;;;5048884;28;20034;-85
2021/07/31 12:38:29;;;;;;;9.98;6.43;;;20.40;99.90;;;;;;5027161;28;20416;-87
2021/07/31 12:40:59;;;;;;;9.20;6.35;;;19.90;99.90;;;;;;5038931;28;20040;-87
2021/07/31 12:43:26;;;;;;;6.90;6.20;;;19.50;99.90;;;;;;5026279;28;20045;-87